createdAt,value
2018-03-15T00:01:58.781Z,75.31
2018-03-15T00:04:40.851Z,75.49
2018-03-15T00:07:08.416Z,75.29
2018-03-15T00:09:35.962Z,75.50
2018-03-15T00:12:03.499Z,75.76
2018-03-15T00:14:31.058Z,75.94
2018-03-15T00:16:58.706Z,76.17
2018-03-15T00:19:26.228Z,76.22
2018-03-15T00:21:53.771Z,76.42
2018-03-15T00:24:21.300Z,76.11
2018-03-15T00:26:48.933Z,76.06
2018-03-15T00:29:16.485Z,75.84
2018-03-15T00:31:44.037Z,75.68
2018-03-15T00:34:11.544Z,75.70
2018-03-15T00:36:39.064Z,75.51
2018-03-15T00:39:06.603Z,76.08
2018-03-15T00:41:34.111Z,76.36
2018-03-15T00:44:01.670Z,76.64
2018-03-15T00:46:29.216Z,76.57
2018-03-15T00:48:57.000Z,76.55
2018-03-15T00:51:24.517Z,76.59
2018-03-15T00:53:52.053Z,76.74
2018-03-15T00:56:19.577Z,76.54
2018-03-15T00:58:47.090Z,77.01
2018-03-15T01:01:14.617Z,76.90
2018-03-15T01:03:42.144Z,77.21
2018-03-15T01:06:09.675Z,77.18
2018-03-15T01:08:37.226Z,76.91
2018-03-15T01:11:04.721Z,76.72
2018-03-15T01:13:32.263Z,76.98
2018-03-15T01:15:59.798Z,77.09
2018-03-15T01:18:27.391Z,76.85
2018-03-15T01:20:54.860Z,76.93
2018-03-15T01:23:22.393Z,77.10
2018-03-15T01:25:49.891Z,77.10
2018-03-15T01:28:17.425Z,77.16
2018-03-15T01:30:44.959Z,77.25
2018-03-15T01:33:12.788Z,77.63
2018-03-15T01:35:40.372Z,77.63
2018-03-15T01:38:08.228Z,77.85
2018-03-15T01:40:35.719Z,77.72
2018-03-15T01:43:03.250Z,77.62
2018-03-15T01:45:30.756Z,77.59
2018-03-15T01:47:58.674Z,77.60
2018-03-15T01:50:26.199Z,77.78
2018-03-15T01:52:53.720Z,77.85
2018-03-15T01:55:21.328Z,78.01
2018-03-15T01:57:48.841Z,77.76
2018-03-15T02:00:16.411Z,77.61
2018-03-15T02:02:43.962Z,77.60
2018-03-15T02:05:11.498Z,77.79
2018-03-15T02:07:39.353Z,77.90
2018-03-15T02:10:06.868Z,77.83
2018-03-15T02:12:34.416Z,77.88
2018-03-15T02:15:01.944Z,77.76
2018-03-15T02:17:29.471Z,77.71
2018-03-15T02:19:56.987Z,77.79
2018-03-15T02:22:24.512Z,77.85
2018-03-15T02:24:52.043Z,78.06
2018-03-15T02:27:19.563Z,77.93
2018-03-15T02:29:47.085Z,78.05
2018-03-15T02:32:14.616Z,78.20
2018-03-15T02:34:42.419Z,78.48
2018-03-15T02:37:09.949Z,78.48
2018-03-15T02:39:38.370Z,78.91
2018-03-15T02:42:06.228Z,78.74
2018-03-15T02:44:34.193Z,78.54
2018-03-15T02:47:01.788Z,78.39
2018-03-15T02:49:29.620Z,78.36
2018-03-15T02:51:57.392Z,78.36
2018-03-15T02:54:24.913Z,78.34
2018-03-15T02:56:52.431Z,78.56
2018-03-15T02:59:20.012Z,78.53
2018-03-15T03:01:47.558Z,78.08
2018-03-15T03:04:15.078Z,78.28
2018-03-15T03:06:42.621Z,78.39
2018-03-15T03:09:10.261Z,78.35
2018-03-15T03:11:37.721Z,78.58
2018-03-15T03:14:05.259Z,78.63
2018-03-15T03:16:32.772Z,78.49
2018-03-15T03:19:00.287Z,78.65
2018-03-15T03:21:28.116Z,78.80
2018-03-15T03:23:55.662Z,78.46
2018-03-15T03:26:23.172Z,78.81
2018-03-15T03:28:50.702Z,78.70
2018-03-15T03:31:18.233Z,78.63
2018-03-15T03:33:45.764Z,78.35
2018-03-15T03:36:13.363Z,78.70
2018-03-15T03:38:40.953Z,78.15
2018-03-15T03:41:08.513Z,78.40
2018-03-15T03:43:36.053Z,78.48
2018-03-15T03:46:03.930Z,78.75
2018-03-15T03:48:31.507Z,78.65
2018-03-15T03:50:59.078Z,78.53
2018-03-15T03:53:26.613Z,78.85
2018-03-15T03:55:54.160Z,78.71
2018-03-15T03:58:21.681Z,78.53
2018-03-15T04:00:49.286Z,78.30
2018-03-15T04:03:16.880Z,78.16
2018-03-15T04:05:44.408Z,78.20
2018-03-15T04:08:11.947Z,78.14
2018-03-15T04:10:39.469Z,78.43
2018-03-15T04:13:07.000Z,78.59
2018-03-15T04:15:34.544Z,78.26
2018-03-15T04:18:02.160Z,78.30
2018-03-15T04:20:29.646Z,78.69
2018-03-15T04:22:57.161Z,78.72
2018-03-15T04:25:24.679Z,78.56
2018-03-15T04:27:52.187Z,78.53
2018-03-15T04:30:19.711Z,78.58
2018-03-15T04:32:47.232Z,79.02
2018-03-15T04:35:14.751Z,78.99
2018-03-15T04:37:42.284Z,79.23
2018-03-15T04:40:09.860Z,78.93
2018-03-15T04:42:37.375Z,79.03
2018-03-15T04:45:04.942Z,79.06
2018-03-15T04:47:32.462Z,78.94
2018-03-15T04:50:00.026Z,78.95
2018-03-15T04:52:27.552Z,78.91
2018-03-15T04:54:55.093Z,78.71
2018-03-15T04:57:23.250Z,78.85
2018-03-15T04:59:50.781Z,78.84
2018-03-15T05:02:18.381Z,78.68
2018-03-15T05:04:45.930Z,78.82
2018-03-15T05:07:13.457Z,78.98
2018-03-15T05:09:41.048Z,78.96
2018-03-15T05:12:08.577Z,78.95
2018-03-15T05:14:36.132Z,78.87
2018-03-15T05:17:03.686Z,78.60
2018-03-15T05:19:31.717Z,78.42
2018-03-15T05:21:59.245Z,78.28
2018-03-15T05:24:26.838Z,78.43
2018-03-15T05:26:54.345Z,78.48
2018-03-15T05:29:21.876Z,78.64
2018-03-15T05:31:49.410Z,78.80
2018-03-15T05:34:16.981Z,78.85
2018-03-15T05:36:44.501Z,79.03
2018-03-15T05:39:12.033Z,79.20
2018-03-15T05:41:39.564Z,79.24
2018-03-15T05:44:07.153Z,78.66
2018-03-15T05:46:34.721Z,78.91
2018-03-15T05:49:02.331Z,78.72
2018-03-15T05:51:29.867Z,79.03
2018-03-15T05:53:57.403Z,79.26
2018-03-15T05:56:24.959Z,79.36
2018-03-15T05:58:52.490Z,79.47
2018-03-15T06:01:20.024Z,79.68
2018-03-15T06:03:47.532Z,79.86
2018-03-15T06:06:15.076Z,79.79
2018-03-15T06:08:42.619Z,79.76
2018-03-15T06:11:10.176Z,79.91
2018-03-15T06:13:37.720Z,79.99
2018-03-15T06:16:05.262Z,79.72
2018-03-15T06:18:33.054Z,79.81
2018-03-15T06:21:00.585Z,80.03
2018-03-15T06:23:28.123Z,79.57
2018-03-15T06:25:55.642Z,79.14
2018-03-15T06:28:23.188Z,79.50
2018-03-15T06:30:50.718Z,79.41
2018-03-15T06:33:18.249Z,79.79
2018-03-15T06:35:45.782Z,79.89
2018-03-15T06:38:13.304Z,80.09
2018-03-15T06:40:40.868Z,80.07
2018-03-15T06:43:08.391Z,79.70
2018-03-15T06:45:35.910Z,79.41
2018-03-15T06:48:03.431Z,79.58
2018-03-15T06:50:31.159Z,79.85
2018-03-15T06:52:58.674Z,79.50
2018-03-15T06:55:26.252Z,79.22
2018-03-15T06:57:53.751Z,79.34
2018-03-15T07:00:21.742Z,79.52
2018-03-15T07:02:49.257Z,79.70
2018-03-15T07:05:16.794Z,79.34
2018-03-15T07:07:44.320Z,79.03
2018-03-15T07:10:11.925Z,78.85
2018-03-15T07:12:39.436Z,79.21
2018-03-15T07:15:06.966Z,79.18
2018-03-15T07:17:34.514Z,79.16
2018-03-15T07:20:02.045Z,78.42
2018-03-15T07:22:29.554Z,78.32
2018-03-15T07:24:57.082Z,78.21
2018-03-15T07:27:24.725Z,78.31
2018-03-15T07:29:52.789Z,77.74
2018-03-15T07:32:20.326Z,77.84
2018-03-15T07:34:47.871Z,78.15
2018-03-15T07:37:15.414Z,78.06
2018-03-15T07:39:42.989Z,77.75
2018-03-15T07:42:10.527Z,77.77
2018-03-15T07:44:38.091Z,78.04
2018-03-15T07:47:05.652Z,77.82
2018-03-15T07:49:33.179Z,77.94
2018-03-15T07:52:00.730Z,77.60
2018-03-15T07:54:29.083Z,77.47
2018-03-15T07:56:56.637Z,77.11
2018-03-15T07:59:24.169Z,77.68
2018-03-15T08:01:51.775Z,77.82
2018-03-15T08:04:19.387Z,77.92
2018-03-15T08:06:46.974Z,77.33
2018-03-15T08:09:14.492Z,77.78
2018-03-15T08:11:42.038Z,77.24
2018-03-15T08:14:09.604Z,76.74
2018-03-15T08:16:37.187Z,76.71
2018-03-15T08:19:06.119Z,76.90
2018-03-15T08:21:33.646Z,76.46
2018-03-15T08:24:01.214Z,76.29
2018-03-15T08:26:28.774Z,76.55
2018-03-15T08:28:56.336Z,76.75
2018-03-15T08:31:26.032Z,76.91
2018-03-15T08:33:53.824Z,77.09
2018-03-15T08:36:22.990Z,76.97
2018-03-15T08:38:55.146Z,76.87
2018-03-15T08:41:23.998Z,76.56
2018-03-15T08:43:54.576Z,76.70
2018-03-15T08:46:22.322Z,76.14
2018-03-15T08:48:50.045Z,76.45
2018-03-15T08:51:17.596Z,76.52
2018-03-15T08:53:45.857Z,76.27
2018-03-15T08:56:13.403Z,76.57
2018-03-15T08:58:43.101Z,76.23
2018-03-15T09:01:11.797Z,76.34
2018-03-15T09:03:39.901Z,76.19
2018-03-15T09:06:07.432Z,75.94
2018-03-15T09:08:37.603Z,75.74
2018-03-15T09:11:06.396Z,75.64
2018-03-15T09:13:33.926Z,74.96
2018-03-15T09:16:01.488Z,74.72
2018-03-15T09:18:30.159Z,74.69
2018-03-15T09:20:58.480Z,73.90
2018-03-15T09:23:25.982Z,73.85
2018-03-15T09:25:53.849Z,73.81
2018-03-15T09:28:21.480Z,73.25
2018-03-15T09:30:49.893Z,73.13
2018-03-15T09:33:17.655Z,72.74
2018-03-15T09:35:45.403Z,72.19
2018-03-15T09:38:12.979Z,71.74
2018-03-15T09:40:41.064Z,71.98
2018-03-15T09:43:08.609Z,71.91
2018-03-15T09:45:38.917Z,70.66
2018-03-15T09:48:07.869Z,70.33
2018-03-15T09:50:35.418Z,70.36
2018-03-15T09:53:02.970Z,70.33
2018-03-15T09:55:30.501Z,70.06
2018-03-15T09:57:58.079Z,69.50
2018-03-15T10:00:25.641Z,69.83
2018-03-15T10:02:53.201Z,70.04
2018-03-15T10:05:21.063Z,69.89
2018-03-15T10:07:48.606Z,70.38
2018-03-15T10:10:16.237Z,70.19
2018-03-15T10:12:44.040Z,70.09
2018-03-15T10:15:11.582Z,70.18
2018-03-15T10:17:39.154Z,70.38
2018-03-15T10:20:06.811Z,70.08
2018-03-15T10:22:34.525Z,69.69
2018-03-15T10:25:13.607Z,70.01
2018-03-15T10:27:30.547Z,69.82
2018-03-15T10:29:58.798Z,69.77
2018-03-15T10:32:26.507Z,69.96
2018-03-15T10:34:59.732Z,69.78
2018-03-15T10:37:27.419Z,70.08
2018-03-15T10:39:54.977Z,69.93
2018-03-15T10:42:22.870Z,69.37
2018-03-15T10:44:50.444Z,69.35
2018-03-15T10:47:17.992Z,69.41
2018-03-15T10:49:45.549Z,68.40
2018-03-15T10:52:13.130Z,68.49
2018-03-15T10:54:41.497Z,68.17
2018-03-15T10:57:09.134Z,67.84
2018-03-15T10:59:36.638Z,68.12
2018-03-15T11:02:06.166Z,68.53
2018-03-15T11:04:34.437Z,68.39
2018-03-15T11:07:05.202Z,68.34
2018-03-15T11:09:34.558Z,68.38
2018-03-15T11:12:02.474Z,68.41
2018-03-15T11:14:31.043Z,67.96
2018-03-15T11:16:59.809Z,68.39
2018-03-15T11:19:27.537Z,68.70
2018-03-15T11:21:55.079Z,68.61
2018-03-15T11:24:22.836Z,68.52
2018-03-15T11:26:50.659Z,68.48
2018-03-15T11:29:18.234Z,68.30
2018-03-15T11:31:45.786Z,68.15
2018-03-15T11:34:13.340Z,68.27
2018-03-15T11:36:41.078Z,68.65
2018-03-15T11:39:08.940Z,68.55
2018-03-15T11:41:36.549Z,68.71
2018-03-15T11:44:04.475Z,68.33
2018-03-15T11:46:32.167Z,68.37
2018-03-15T11:48:59.791Z,68.83
2018-03-15T11:51:27.423Z,68.91
2018-03-15T11:53:54.968Z,68.73
2018-03-15T11:56:24.586Z,68.70
2018-03-15T11:58:53.394Z,68.47
2018-03-15T12:01:21.202Z,67.85
2018-03-15T12:03:52.578Z,67.96
2018-03-15T12:06:21.430Z,67.96
2018-03-15T12:08:48.971Z,67.35
2018-03-15T12:11:16.531Z,67.80
2018-03-15T12:13:44.139Z,67.52
2018-03-15T12:16:11.991Z,67.20
2018-03-15T12:18:39.516Z,67.40
2018-03-15T12:21:07.194Z,67.47
2018-03-15T12:23:34.718Z,67.34
2018-03-15T12:26:02.252Z,67.25
2018-03-15T12:28:29.888Z,66.91
2018-03-15T12:30:57.424Z,66.88
2018-03-15T12:33:25.108Z,67.07
2018-03-15T12:35:52.640Z,67.09
2018-03-15T12:38:20.537Z,67.50
2018-03-15T12:40:48.040Z,66.64
2018-03-15T12:43:15.670Z,66.61
2018-03-15T12:45:43.529Z,66.28
2018-03-15T12:48:11.122Z,65.94
2018-03-15T12:50:38.642Z,65.98
2018-03-15T12:53:06.162Z,65.92
2018-03-15T12:55:33.707Z,65.18
2018-03-15T12:58:01.233Z,64.79
2018-03-15T13:00:28.856Z,64.57
2018-03-15T13:02:56.436Z,64.49
2018-03-15T13:05:24.541Z,63.75
2018-03-15T13:07:52.790Z,63.74
2018-03-15T13:10:20.441Z,64.43
2018-03-15T13:12:48.853Z,64.52
2018-03-15T13:15:16.388Z,64.66
2018-03-15T13:17:43.941Z,64.47
2018-03-15T13:20:12.752Z,65.07
2018-03-15T13:22:40.842Z,64.38
2018-03-15T13:25:08.478Z,64.15
2018-03-15T13:27:36.833Z,64.61
2018-03-15T13:30:04.422Z,64.56
2018-03-15T13:32:32.470Z,64.29
2018-03-15T13:35:00.336Z,64.22
2018-03-15T13:37:28.171Z,64.09
2018-03-15T13:39:56.602Z,64.60
2018-03-15T13:42:24.138Z,65.19
2018-03-15T13:44:51.946Z,65.35
2018-03-15T13:47:19.787Z,65.95
2018-03-15T13:49:47.690Z,66.09
2018-03-15T13:52:16.377Z,65.92
2018-03-15T13:54:44.044Z,65.82
2018-03-15T13:57:11.649Z,65.91
2018-03-15T13:59:40.299Z,66.07
2018-03-15T14:02:07.924Z,66.54
2018-03-15T14:04:35.540Z,66.50
2018-03-15T14:07:03.069Z,66.03
2018-03-15T14:09:30.635Z,66.30
2018-03-15T14:11:58.295Z,66.31
2018-03-15T14:14:25.840Z,66.11
2018-03-15T14:16:53.396Z,65.79
2018-03-15T14:19:21.033Z,65.44
2018-03-15T14:21:48.586Z,65.12
2018-03-15T14:24:16.158Z,64.36
2018-03-15T14:26:43.828Z,63.71
2018-03-15T14:29:11.340Z,63.32
2018-03-15T14:31:39.184Z,62.97
2018-03-15T14:34:06.755Z,62.56
2018-03-15T14:36:34.306Z,62.49
2018-03-15T14:39:01.813Z,62.79
2018-03-15T14:41:29.333Z,63.16
2018-03-15T14:43:56.878Z,63.70
2018-03-15T14:46:24.494Z,65.01
2018-03-15T14:48:52.005Z,64.86
2018-03-15T14:51:19.513Z,64.75
2018-03-15T14:53:47.041Z,64.84
2018-03-15T14:56:14.582Z,64.95
2018-03-15T14:58:42.084Z,64.69
2018-03-15T15:01:09.646Z,64.96
2018-03-15T15:03:37.684Z,64.87
2018-03-15T15:06:05.467Z,64.95
2018-03-15T15:08:32.997Z,65.32
2018-03-15T15:11:00.536Z,65.05
2018-03-15T15:13:28.094Z,65.08
2018-03-15T15:15:55.630Z,65.03
2018-03-15T15:18:23.153Z,64.51
2018-03-15T15:20:50.723Z,64.89
2018-03-15T15:23:18.226Z,64.82
2018-03-15T15:25:45.736Z,65.04
2018-03-15T15:28:13.260Z,65.31
2018-03-15T15:30:40.788Z,65.16
2018-03-15T15:33:08.622Z,65.46
2018-03-15T15:35:36.164Z,65.54
2018-03-15T15:38:03.707Z,65.48
2018-03-15T15:40:31.292Z,65.50
2018-03-15T15:42:58.800Z,65.84
2018-03-15T15:45:29.361Z,65.71
2018-03-15T15:47:59.592Z,65.69
2018-03-15T15:50:31.592Z,65.15
2018-03-15T15:53:02.221Z,65.42
2018-03-15T15:55:33.389Z,65.29
2018-03-15T15:58:04.703Z,65.51
2018-03-15T16:00:34.819Z,65.59
2018-03-15T16:03:02.402Z,65.33
2018-03-15T16:05:29.957Z,65.21
2018-03-15T16:08:06.152Z,65.56
2018-03-15T16:10:37.901Z,65.71
2018-03-15T16:13:09.739Z,65.88
2018-03-15T16:15:40.692Z,65.69
2018-03-15T16:18:10.027Z,65.93
2018-03-15T16:20:42.363Z,65.46
2018-03-15T16:23:12.007Z,65.64
2018-03-15T16:25:40.789Z,65.50
2018-03-15T16:28:13.832Z,65.36
2018-03-15T16:30:42.294Z,65.11
2018-03-15T16:33:12.580Z,65.07
2018-03-15T16:35:41.476Z,65.12
2018-03-15T16:38:14.722Z,65.36
2018-03-15T16:40:44.682Z,65.27
2018-03-15T16:43:17.212Z,65.63
2018-03-15T16:45:44.933Z,65.87
2018-03-15T16:48:12.471Z,66.00
2018-03-15T16:50:40.085Z,66.02
2018-03-15T16:53:07.614Z,66.07
2018-03-15T16:55:35.213Z,65.94
2018-03-15T16:58:04.227Z,66.10
2018-03-15T17:00:31.802Z,66.20
2018-03-15T17:03:07.255Z,66.33
2018-03-15T17:05:35.613Z,66.70
2018-03-15T17:08:12.262Z,66.83
2018-03-15T17:10:40.917Z,66.80
2018-03-15T17:13:20.827Z,67.18
2018-03-15T17:15:53.473Z,67.25
2018-03-15T17:18:25.285Z,66.99
2018-03-15T17:20:54.139Z,67.13
2018-03-15T17:23:24.481Z,67.19
2018-03-15T17:25:52.430Z,67.14
2018-03-15T17:28:19.958Z,67.50
2018-03-15T17:30:47.492Z,67.13
2018-03-15T17:33:17.256Z,67.34
2018-03-15T17:35:46.979Z,67.37
2018-03-15T17:38:16.296Z,67.37
2018-03-15T17:40:43.814Z,67.58
2018-03-15T17:43:11.629Z,67.53
2018-03-15T17:45:39.731Z,67.66
2018-03-15T17:48:08.199Z,67.69
2018-03-15T17:50:38.450Z,68.00
2018-03-15T17:53:06.418Z,68.00
2018-03-15T17:55:37.224Z,67.80
2018-03-15T17:58:05.306Z,68.04
2018-03-15T18:00:33.772Z,67.85
2018-03-15T18:03:01.658Z,67.68
2018-03-15T18:05:29.472Z,67.83
2018-03-15T18:07:58.176Z,67.99
2018-03-15T18:10:26.496Z,67.62
2018-03-15T18:12:54.459Z,67.37
2018-03-15T18:15:23.005Z,67.57
2018-03-15T18:17:50.809Z,67.58
2018-03-15T18:20:18.705Z,67.75
2018-03-15T18:22:46.304Z,67.82
2018-03-15T18:25:15.205Z,68.10
2018-03-15T18:27:43.822Z,67.27
2018-03-15T18:30:11.577Z,67.70
2018-03-15T18:32:42.119Z,67.53
2018-03-15T18:35:13.217Z,67.70
2018-03-15T18:37:41.692Z,67.84
2018-03-15T18:40:10.440Z,67.91
2018-03-15T18:42:38.598Z,68.02
2018-03-15T18:45:07.863Z,68.11
2018-03-15T18:47:37.569Z,68.49
2018-03-15T18:50:05.720Z,68.37
2018-03-15T18:52:33.533Z,68.44
2018-03-15T18:55:01.499Z,68.48
2018-03-15T18:57:31.613Z,68.40
2018-03-15T18:59:59.362Z,68.22
2018-03-15T19:02:26.916Z,68.58
2018-03-15T19:04:54.949Z,68.99
2018-03-15T19:07:22.494Z,68.71
2018-03-15T19:09:50.012Z,68.71
2018-03-15T19:12:17.553Z,68.63
2018-03-15T19:14:45.055Z,68.90
2018-03-15T19:17:12.719Z,68.72
2018-03-15T19:19:40.248Z,68.55
2018-03-15T19:22:07.751Z,69.18
2018-03-15T19:24:35.387Z,69.23
2018-03-15T19:27:02.896Z,69.31
2018-03-15T19:29:30.441Z,69.62
2018-03-15T19:31:57.956Z,69.51
2018-03-15T19:34:25.484Z,69.58
2018-03-15T19:36:53.008Z,69.21
2018-03-15T19:39:20.526Z,69.44
2018-03-15T19:41:48.071Z,69.53
2018-03-15T19:44:15.911Z,69.91
2018-03-15T19:46:43.419Z,69.67
2018-03-15T19:49:10.941Z,69.84
2018-03-15T19:51:38.647Z,69.55
2018-03-15T19:54:06.215Z,69.89
2018-03-15T19:56:33.717Z,70.33
2018-03-15T19:59:01.280Z,70.13
2018-03-15T20:01:29.122Z,70.16
2018-03-15T20:03:56.680Z,70.41
2018-03-15T20:06:24.208Z,70.49
2018-03-15T20:08:51.792Z,70.36
2018-03-15T20:11:19.445Z,70.50
2018-03-15T20:13:47.020Z,70.24
2018-03-15T20:16:15.810Z,70.28
2018-03-15T20:18:43.325Z,70.19
2018-03-15T20:21:10.829Z,70.34
2018-03-15T20:23:43.983Z,70.66
2018-03-15T20:26:11.550Z,71.07
2018-03-15T20:28:44.597Z,70.81
2018-03-15T20:31:12.128Z,71.06
2018-03-15T20:33:45.345Z,70.87
2018-03-15T20:36:12.926Z,70.88
2018-03-15T20:38:40.455Z,70.82
2018-03-15T20:44:02.073Z,70.87
2018-03-15T20:46:35.168Z,70.95
2018-03-15T20:49:08.586Z,70.88
2018-03-15T20:51:36.168Z,70.74
2018-03-15T20:54:03.700Z,70.81
2018-03-15T20:56:31.210Z,70.87
2018-03-15T20:58:58.824Z,70.57
2018-03-15T21:01:26.513Z,70.52
2018-03-15T21:03:54.032Z,70.66
2018-03-15T21:06:21.592Z,70.43
2018-03-15T21:08:49.092Z,70.37
2018-03-15T21:11:16.657Z,70.82
2018-03-15T21:13:44.373Z,71.25
2018-03-15T21:16:12.161Z,71.24
2018-03-15T21:18:39.689Z,71.21
2018-03-15T21:21:07.214Z,71.15
2018-03-15T21:23:34.746Z,71.11
2018-03-15T21:26:02.280Z,71.13
2018-03-15T21:28:30.184Z,71.02
2018-03-15T21:30:57.712Z,71.00
2018-03-15T21:33:25.250Z,71.07
2018-03-15T21:35:53.155Z,71.34
2018-03-15T21:38:20.730Z,71.54
2018-03-15T21:40:48.262Z,71.46
2018-03-15T21:43:15.763Z,71.63
2018-03-15T21:45:43.285Z,71.32
2018-03-15T21:48:10.809Z,71.40
2018-03-15T21:50:38.343Z,71.57
2018-03-15T21:53:05.859Z,71.66
2018-03-15T21:55:33.395Z,71.63
2018-03-15T21:58:00.900Z,71.62
2018-03-15T22:00:28.467Z,71.78
2018-03-15T22:02:56.023Z,71.87
2018-03-15T22:05:23.595Z,71.97
2018-03-15T22:07:51.120Z,72.29
2018-03-15T22:10:18.772Z,72.49
2018-03-15T22:12:46.295Z,72.62
2018-03-15T22:15:14.117Z,72.83
2018-03-15T22:17:41.619Z,73.25
2018-03-15T22:20:09.167Z,73.05
2018-03-15T22:22:36.712Z,73.12
2018-03-15T22:25:04.295Z,73.08
2018-03-15T22:27:31.799Z,73.32
2018-03-15T22:29:59.590Z,73.39
2018-03-15T22:32:27.122Z,73.18
2018-03-15T22:34:54.654Z,73.31
2018-03-15T22:37:22.198Z,73.46
2018-03-15T22:39:49.700Z,73.61
2018-03-15T22:42:17.232Z,73.58
2018-03-15T22:44:44.736Z,73.33
2018-03-15T22:47:12.283Z,73.54
2018-03-15T22:49:39.787Z,73.64
2018-03-15T22:52:09.491Z,73.53
2018-03-15T22:54:37.040Z,73.61
2018-03-15T22:57:04.580Z,73.48
2018-03-15T22:59:32.095Z,73.22
2018-03-15T23:01:59.631Z,73.34
2018-03-15T23:04:27.387Z,73.62
2018-03-15T23:06:54.930Z,73.61
2018-03-15T23:09:22.451Z,73.78
2018-03-15T23:11:50.023Z,73.78
2018-03-15T23:14:17.524Z,74.04
2018-03-15T23:16:45.059Z,73.94
2018-03-15T23:19:12.560Z,74.03
2018-03-15T23:21:40.088Z,73.87
2018-03-15T23:24:07.874Z,73.89
2018-03-15T23:26:35.398Z,73.81
2018-03-15T23:29:02.929Z,73.89
2018-03-15T23:31:30.474Z,73.89
2018-03-15T23:33:58.009Z,73.98
2018-03-15T23:36:25.560Z,74.08
2018-03-15T23:38:54.116Z,74.07
2018-03-15T23:41:21.693Z,74.13
2018-03-15T23:43:49.248Z,74.15
2018-03-15T23:46:16.780Z,73.89
2018-03-15T23:48:44.290Z,73.60
2018-03-15T23:51:11.976Z,73.89
2018-03-15T23:53:39.476Z,73.79
2018-03-15T23:56:07.003Z,73.73
2018-03-15T23:58:34.514Z,73.78
